Mexia Limestone County Airpor, TX

12:08 PM CST on December 06, 2019 (GMT -0600)
Mexia-Limestone County

Weather History for KLXY - November, 2019

Change the Weather History Date:

Sunday, November 17, 2019

  Actual Average (WUND) Record (WUND)
Temperature  
Mean Temperature 54 °F -  
Max Temperature 67 °F - - (-1)
Min Temperature 40 °F - - (-1)
Degree Days  
Heating Degree Days 12    
Growing Degree Days 4 (Base 50)    
Moisture  
Dew Point 43 °F    
Average Humidity 69    
Maximum Humidity 81    
Minimum Humidity 48    
Precipitation  
Precipitation 0.00 in - - ()
Sea Level Pressure  
Sea Level Pressure 30.04 in    
Wind  
Wind Speed 8 mph (SW)    
Max Wind Speed 15 mph    
Max Gust Speed 23 mph    
Visibility 10 miles    
Events      
Averages and records for this station are not official NWS values.
T = Trace of Precipitation, MM = Missing Value Source: NWS Daily Summary

Daily Weather History Graph

Daily Weather History Graph

Search for Another Location

Airport or City:

Astronomy

Nov. 17, 2019 Rise Set
Actual Time 6:55 AM CST 5:25 PM CST
Civil Twilight 6:29 AM CST 5:51 PM CST
Nautical Twilight 6:00 AM CST 6:21 PM CST
Astronomical Twilight 5:31 AM CST 6:50 PM CST
Moon 10:08 PM CST (11/17) 11:37 AM CST (11/17)
Length of Visible Light 11h 22m
Length of Day
10h 30m
Waning Gibbous, 73% of the Moon is Illuminated
Nov 17
Waning Gibbous
Nov 19
Last Quarter
Nov 26
New
Dec 4
First Quarter
Dec 11
Full

Hourly Weather History & Observations

Time (CST) Temp. Windchill Dew Point Humidity Pressure Visibility Wind Dir Wind Speed Gust Speed Precip Events Conditions
12:15 AM 43.9 °F 39.3 °F 36.7 °F 76% 30.08 in 10.0 mi South 8.1 mph - N/A   Clear
12:35 AM 43.3 °F 38.1 °F 36.5 °F 77% 30.08 in 10.0 mi South 9.2 mph - N/A   Clear
12:55 AM 43.3 °F 37.7 °F 36.0 °F 75% 30.07 in 10.0 mi South 10.4 mph - N/A   Clear
1:15 AM 42.8 °F 37.0 °F 35.8 °F 76% 30.08 in 10.0 mi South 10.4 mph - N/A   Clear
1:35 AM 42.4 °F 36.1 °F 35.6 °F 77% 30.07 in 10.0 mi South 11.5 mph - N/A   Clear
1:55 AM 41.9 °F 35.9 °F 35.2 °F 77% 30.08 in 10.0 mi South 10.4 mph - N/A   Clear
2:15 AM 41.7 °F 36.1 °F 35.2 °F 78% 30.07 in 10.0 mi SSW 9.2 mph - N/A   Clear
2:35 AM 41.9 °F 35.9 °F 35.4 °F 78% 30.07 in 10.0 mi South 10.4 mph - N/A   Clear
2:55 AM 41.9 °F 36.3 °F 34.9 °F 76% 30.07 in 10.0 mi South 9.2 mph - N/A   Clear
3:15 AM 41.2 °F 35.5 °F 35.4 °F 80% 30.07 in 10.0 mi South 9.2 mph - N/A   Clear
3:35 AM 41.0 °F 35.2 °F 34.5 °F 78% 30.06 in 10.0 mi South 9.2 mph - N/A   Clear
3:55 AM 41.0 °F 35.8 °F 34.7 °F 78% 30.06 in 10.0 mi South 8.1 mph - N/A   Clear
4:15 AM 41.0 °F 34.7 °F 34.7 °F 78% 30.05 in 10.0 mi South 10.4 mph - N/A   Clear
4:35 AM 41.5 °F 36.4 °F 34.3 °F 76% 30.06 in 10.0 mi SSW 8.1 mph - N/A   Clear
4:55 AM 42.1 °F 36.1 °F 34.5 °F 75% 30.06 in 10.0 mi South 10.4 mph - N/A   Clear
5:15 AM 41.7 °F 35.6 °F 34.2 °F 75% 30.06 in 10.0 mi South 10.4 mph - N/A   Clear
5:35 AM 41.0 °F 38.0 °F 34.2 °F 77% 30.06 in 10.0 mi South 4.6 mph - N/A   Clear
5:55 AM 41.0 °F 34.7 °F 34.2 °F 77% 30.07 in 10.0 mi SSW 10.4 mph - N/A   Clear
6:15 AM 40.3 °F 33.4 °F 34.2 °F 79% 30.07 in 10.0 mi South 11.5 mph - N/A   Clear
6:35 AM 40.3 °F 34.4 °F 34.9 °F 81% 30.07 in 10.0 mi South 9.2 mph - N/A   Clear
6:55 AM 40.6 °F 36.0 °F 35.1 °F 80% 30.07 in 10.0 mi South 6.9 mph - N/A   Clear
7:15 AM 40.1 °F 38.0 °F 34.7 °F 81% 30.09 in 10.0 mi South 3.5 mph - N/A   Clear
7:35 AM 41.0 °F 38.0 °F 35.6 °F 81% 30.09 in 10.0 mi South 4.6 mph - N/A   Clear
7:55 AM 42.1 °F 39.2 °F 36.5 °F 81% 30.09 in 10.0 mi South 4.6 mph - N/A   Clear
8:15 AM 43.2 °F 40.5 °F 37.0 °F 79% 30.09 in 10.0 mi South 4.6 mph - N/A   Clear
8:35 AM 45.3 °F 40.6 °F 38.1 °F 76% 30.09 in 10.0 mi South 9.2 mph - N/A   Clear
8:55 AM 48.4 °F - 40.3 °F 74% 30.09 in 10.0 mi South 6.9 mph - N/A   Clear
9:15 AM 51.4 °F - 41.7 °F 69% 30.09 in 10.0 mi SSW 9.2 mph - N/A   Clear
9:35 AM 55.0 °F - 41.9 °F 61% 30.09 in 10.0 mi South 15.0 mph 18.4 mph N/A   Clear
9:55 AM 56.3 °F - 41.4 °F 57% 30.09 in 10.0 mi SSW 8.1 mph - N/A   Clear
10:15 AM 57.7 °F - 42.4 °F 57% 30.09 in 10.0 mi SSW 6.9 mph 17.3 mph N/A   Clear
10:55 AM 62.4 °F - 45.3 °F 54% 30.07 in 10.0 mi SSW 9.2 mph 20.7 mph N/A   Clear
11:15 AM 63.9 °F - 47.1 °F 54% 30.07 in 10.0 mi SW 9.2 mph 19.6 mph N/A   Clear
11:35 AM 64.4 °F - 48.2 °F 56% 30.06 in 10.0 mi SW 9.2 mph 16.1 mph N/A   Scattered Clouds
11:55 AM 66.0 °F - 49.1 °F 54% 30.05 in 10.0 mi SW 9.2 mph 21.9 mph N/A   Scattered Clouds
12:15 PM 66.0 °F - 49.8 °F 56% 30.04 in 10.0 mi WSW 12.7 mph 23.0 mph N/A   Scattered Clouds
12:35 PM 66.0 °F - 49.1 °F 54% 30.03 in 10.0 mi WSW 13.8 mph - N/A   Mostly Cloudy
12:55 PM 66.2 °F - 49.5 °F 55% 30.02 in 10.0 mi WSW 9.2 mph 17.3 mph N/A   Scattered Clouds
1:35 PM 67.1 °F - 49.6 °F 53% 29.99 in 10.0 mi WSW 9.2 mph 16.1 mph N/A   Clear
1:55 PM 67.3 °F - 49.3 °F 52% 29.99 in 10.0 mi SW 8.1 mph - N/A   Clear
2:15 PM 67.3 °F - 47.3 °F 49% 29.98 in 10.0 mi West 6.9 mph - N/A   Clear
2:35 PM 67.1 °F - 48.6 °F 51% 29.97 in 10.0 mi SW 5.8 mph - N/A   Clear
2:55 PM 67.5 °F - 48.2 °F 50% 29.97 in 10.0 mi SSW 5.8 mph - N/A   Clear
3:15 PM 67.8 °F - 47.7 °F 48% 29.96 in 10.0 mi SW 8.1 mph - N/A   Clear
3:35 PM 67.5 °F - 48.0 °F 50% 29.96 in 10.0 mi SW 4.6 mph - N/A   Clear
3:55 PM 67.3 °F - 48.4 °F 51% 29.96 in 10.0 mi South 10.4 mph - N/A   Clear
4:15 PM 67.1 °F - 48.4 °F 51% 29.96 in 10.0 mi SSW 9.2 mph - N/A   Clear
4:35 PM 66.2 °F - 48.7 °F 53% 29.97 in 10.0 mi SSW 6.9 mph - N/A   Clear
4:55 PM 64.9 °F - 49.1 °F 56% 29.97 in 10.0 mi SSW 6.9 mph - N/A   Clear
5:15 PM 62.2 °F - 49.1 °F 62% 29.98 in 10.0 mi SSW 4.6 mph - N/A   Clear
5:35 PM 60.3 °F - 48.4 °F 65% 29.99 in 10.0 mi SSW 5.8 mph - N/A   Clear
5:55 PM 59.2 °F - 48.4 °F 67% 29.99 in 10.0 mi SSW 5.8 mph - N/A   Clear
6:15 PM 58.3 °F - 48.6 °F 70% 29.99 in 10.0 mi SSW 6.9 mph - N/A   Clear
6:35 PM 56.7 °F - 48.2 °F 73% 30.00 in 10.0 mi SSW 4.6 mph - N/A   Clear
6:55 PM 57.9 °F - 49.1 °F 72% 30.00 in 10.0 mi SSW 3.5 mph - N/A   Clear
7:15 PM 57.4 °F - 49.6 °F 75% 30.00 in 10.0 mi WSW 3.5 mph - N/A   Clear
7:35 PM 56.8 °F - 49.1 °F 75% 30.00 in 10.0 mi WSW 5.8 mph - N/A   Clear
7:55 PM 57.6 °F - 49.1 °F 73% 30.01 in 10.0 mi West 4.6 mph - N/A   Clear
8:15 PM 56.5 °F - 48.7 °F 75% 30.02 in 10.0 mi West 5.8 mph - N/A   Clear
8:35 PM 56.3 °F - 48.9 °F 76% 30.02 in 10.0 mi West 4.6 mph - N/A   Clear
8:55 PM 55.2 °F - 48.4 °F 78% 30.02 in 10.0 mi WNW 5.8 mph - N/A   Clear
9:15 PM 54.7 °F - 48.2 °F 79% 30.02 in 10.0 mi WNW 4.6 mph - N/A   Clear
9:35 PM 54.0 °F - 48.0 °F 80% 30.02 in 10.0 mi WNW 6.9 mph - N/A   Clear
9:55 PM 55.2 °F - 46.9 °F 74% 30.02 in 10.0 mi WNW 8.1 mph - N/A   Clear
10:15 PM 52.7 °F - 46.0 °F 78% 30.02 in 10.0 mi WNW 5.8 mph - N/A   Clear
10:35 PM 51.6 °F - 45.5 °F 80% 30.02 in 10.0 mi WNW 5.8 mph - N/A   Clear
10:55 PM 52.7 °F - 44.6 °F 74% 30.02 in 10.0 mi WNW 5.8 mph - N/A   Clear
11:15 PM 52.2 °F - 43.7 °F 73% 30.02 in 10.0 mi WNW 5.8 mph - N/A   Clear
11:35 PM 51.6 °F - 43.2 °F 73% 30.02 in 10.0 mi NW 5.8 mph - N/A   Clear
11:55 PM 51.8 °F - 42.8 °F 71% 30.01 in 10.0 mi NW 6.9 mph - N/A   Clear